Terminal Aerodrome Forecast
Issued by NWS

Home | Current Version | Previous Version | Graphics & Text | Print | Product List | Glossary On
Versions: 1 2 3 4 5 6 7 8 9 10 11 12 13 14 15 16 17 18 19 20 21 22
000
FTUS43 KGRB 230520
TAFATW
TAF
KATW 230520Z 2306/2406 32004KT 6SM BR SCT100
     FM230900 35009KT P6SM SCT012 BKN035
      TEMPO 2310/2314 BKN012
     FM231400 01012G18KT P6SM SCT035 BKN250
     FM232300 04014G19KT P6SM SCT040 BKN120=

USA.gov is the U.S. government's official web portal to all federal, state and local government web resources and services.